sensor_id;sensor_type;location;lat;lon;timestamp;temperature;humidity
53045;DHT22;38930;52.766;6.884;2022-09-19T00:01:24;10.50;99.90
53045;DHT22;38930;52.766;6.884;2022-09-19T00:04:29;10.50;99.90
53045;DHT22;38930;52.766;6.884;2022-09-19T00:06:56;10.60;99.90
53045;DHT22;38930;52.766;6.884;2022-09-19T00:09:27;10.70;99.90
53045;DHT22;38930;52.766;6.884;2022-09-19T00:11:53;10.60;99.90
53045;DHT22;38930;52.766;6.884;2022-09-19T00:14:24;10.60;99.90
53045;DHT22;38930;52.766;6.884;2022-09-19T00:16:54;10.60;99.90
53045;DHT22;38930;52.766;6.884;2022-09-19T00:19:21;10.70;99.90
53045;DHT22;38930;52.766;6.884;2022-09-19T00:21:48;10.60;99.90
53045;DHT22;38930;52.766;6.884;2022-09-19T00:24:16;10.70;99.90
53045;DHT22;38930;52.766;6.884;2022-09-19T00:27:02;10.70;99.90
53045;DHT22;38930;52.766;6.884;2022-09-19T00:29:32;10.70;99.90
53045;DHT22;38930;52.766;6.884;2022-09-19T00:31:58;10.70;99.90
53045;DHT22;38930;52.766;6.884;2022-09-19T00:34:24;10.70;99.90
53045;DHT22;38930;52.766;6.884;2022-09-19T00:36:51;10.70;99.90
53045;DHT22;38930;52.766;6.884;2022-09-19T00:39:18;10.70;99.90
53045;DHT22;38930;52.766;6.884;2022-09-19T00:41:45;10.70;99.90
53045;DHT22;38930;52.766;6.884;2022-09-19T00:49:17;10.80;99.90
53045;DHT22;38930;52.766;6.884;2022-09-19T00:51:49;10.80;99.90
53045;DHT22;38930;52.766;6.884;2022-09-19T00:54:19;10.80;99.90
53045;DHT22;38930;52.766;6.884;2022-09-19T00:56:50;10.70;99.90
53045;DHT22;38930;52.766;6.884;2022-09-19T00:59:16;10.70;99.90
53045;DHT22;38930;52.766;6.884;2022-09-19T01:01:43;10.70;99.90
53045;DHT22;38930;52.766;6.884;2022-09-19T01:04:17;10.70;99.90
53045;DHT22;38930;52.766;6.884;2022-09-19T01:23:05;10.70;99.90
53045;DHT22;38930;52.766;6.884;2022-09-19T01:33:59;10.70;99.90
53045;DHT22;38930;52.766;6.884;2022-09-19T01:36:35;10.70;99.90
53045;DHT22;38930;52.766;6.884;2022-09-19T01:39:04;10.70;99.90
53045;DHT22;38930;52.766;6.884;2022-09-19T01:41:30;10.70;99.90
53045;DHT22;38930;52.766;6.884;2022-09-19T01:44:00;10.90;99.90
53045;DHT22;38930;52.766;6.884;2022-09-19T01:55:25;10.80;99.90
53045;DHT22;38930;52.766;6.884;2022-09-19T02:00:59;10.80;99.90
53045;DHT22;38930;52.766;6.884;2022-09-19T02:03:48;11.10;99.90
53045;DHT22;38930;52.766;6.884;2022-09-19T02:06:22;10.80;99.90
53045;DHT22;38930;52.766;6.884;2022-09-19T02:08:59;10.70;99.90
53045;DHT22;38930;52.766;6.884;2022-09-19T02:11:29;10.70;99.90
53045;DHT22;38930;52.766;6.884;2022-09-19T02:14:06;10.70;99.90
53045;DHT22;38930;52.766;6.884;2022-09-19T02:17:04;10.70;99.90
53045;DHT22;38930;52.766;6.884;2022-09-19T02:22:07;10.70;99.90
53045;DHT22;38930;52.766;6.884;2022-09-19T02:24:35;10.90;99.90
53045;DHT22;38930;52.766;6.884;2022-09-19T02:27:14;10.70;99.90
53045;DHT22;38930;52.766;6.884;2022-09-19T02:29:45;10.70;99.90
53045;DHT22;38930;52.766;6.884;2022-09-19T02:32:11;10.70;99.90
53045;DHT22;38930;52.766;6.884;2022-09-19T02:34:38;10.70;99.90
53045;DHT22;38930;52.766;6.884;2022-09-19T02:38:05;10.60;99.90
53045;DHT22;38930;52.766;6.884;2022-09-19T02:40:31;10.60;99.90
53045;DHT22;38930;52.766;6.884;2022-09-19T02:43:34;10.60;99.90
53045;DHT22;38930;52.766;6.884;2022-09-19T02:46:13;10.60;99.90
53045;DHT22;38930;52.766;6.884;2022-09-19T02:48:54;10.60;99.90
53045;DHT22;38930;52.766;6.884;2022-09-19T02:51:35;10.60;99.90
53045;DHT22;38930;52.766;6.884;2022-09-19T02:54:08;10.80;99.90
53045;DHT22;38930;52.766;6.884;2022-09-19T02:56:37;10.70;99.90
53045;DHT22;38930;52.766;6.884;2022-09-19T02:59:14;10.70;99.90
53045;DHT22;38930;52.766;6.884;2022-09-19T03:01:46;10.70;99.90
53045;DHT22;38930;52.766;6.884;2022-09-19T03:04:16;10.70;99.90
53045;DHT22;38930;52.766;6.884;2022-09-19T03:06:57;10.80;99.90
53045;DHT22;38930;52.766;6.884;2022-09-19T03:09:28;10.70;99.90
53045;DHT22;38930;52.766;6.884;2022-09-19T03:12:02;10.80;99.90
53045;DHT22;38930;52.766;6.884;2022-09-19T03:14:28;10.80;99.90
53045;DHT22;38930;52.766;6.884;2022-09-19T03:16:58;11.00;99.90
53045;DHT22;38930;52.766;6.884;2022-09-19T03:19:25;10.80;99.90
53045;DHT22;38930;52.766;6.884;2022-09-19T03:21:54;10.80;99.90
53045;DHT22;38930;52.766;6.884;2022-09-19T03:24:21;10.80;99.90
53045;DHT22;38930;52.766;6.884;2022-09-19T03:26:47;10.80;99.90
53045;DHT22;38930;52.766;6.884;2022-09-19T03:29:14;10.90;99.90
53045;DHT22;38930;52.766;6.884;2022-09-19T03:31:41;10.90;99.90
53045;DHT22;38930;52.766;6.884;2022-09-19T03:34:11;10.90;99.90
53045;DHT22;38930;52.766;6.884;2022-09-19T03:36:37;11.00;99.90
53045;DHT22;38930;52.766;6.884;2022-09-19T03:39:03;11.00;99.90
53045;DHT22;38930;52.766;6.884;2022-09-19T03:41:29;11.00;99.90
53045;DHT22;38930;52.766;6.884;2022-09-19T03:43:56;11.00;99.90
53045;DHT22;38930;52.766;6.884;2022-09-19T03:46:26;11.00;99.90
53045;DHT22;38930;52.766;6.884;2022-09-19T03:48:52;11.00;99.90
53045;DHT22;38930;52.766;6.884;2022-09-19T03:51:18;11.00;99.90
53045;DHT22;38930;52.766;6.884;2022-09-19T03:53:45;11.00;99.90
53045;DHT22;38930;52.766;6.884;2022-09-19T03:56:14;11.00;99.90
53045;DHT22;38930;52.766;6.884;2022-09-19T03:58:41;10.90;99.90
53045;DHT22;38930;52.766;6.884;2022-09-19T04:01:08;10.90;99.90
53045;DHT22;38930;52.766;6.884;2022-09-19T04:03:36;11.00;99.90
53045;DHT22;38930;52.766;6.884;2022-09-19T04:06:03;10.90;99.90
53045;DHT22;38930;52.766;6.884;2022-09-19T04:08:30;10.80;99.90
53045;DHT22;38930;52.766;6.884;2022-09-19T04:10:55;10.80;99.90
53045;DHT22;38930;52.766;6.884;2022-09-19T04:13:21;10.80;99.90
53045;DHT22;38930;52.766;6.884;2022-09-19T04:15:47;10.70;99.90
53045;DHT22;38930;52.766;6.884;2022-09-19T04:18:13;10.80;99.90
53045;DHT22;38930;52.766;6.884;2022-09-19T04:20:39;10.70;99.90
53045;DHT22;38930;52.766;6.884;2022-09-19T04:23:05;10.70;99.90
53045;DHT22;38930;52.766;6.884;2022-09-19T04:25:31;10.70;99.90
53045;DHT22;38930;52.766;6.884;2022-09-19T04:28:06;10.70;99.90
53045;DHT22;38930;52.766;6.884;2022-09-19T04:30:33;10.70;99.90
53045;DHT22;38930;52.766;6.884;2022-09-19T04:33:01;10.70;99.90
53045;DHT22;38930;52.766;6.884;2022-09-19T04:35:32;10.70;99.90
53045;DHT22;38930;52.766;6.884;2022-09-19T04:38:05;10.80;99.90
53045;DHT22;38930;52.766;6.884;2022-09-19T04:40:45;10.70;99.90
53045;DHT22;38930;52.766;6.884;2022-09-19T04:43:13;10.70;99.90
53045;DHT22;38930;52.766;6.884;2022-09-19T04:45:39;11.00;99.90
53045;DHT22;38930;52.766;6.884;2022-09-19T04:48:08;10.80;99.90
53045;DHT22;38930;52.766;6.884;2022-09-19T04:50:35;10.70;99.90
53045;DHT22;38930;52.766;6.884;2022-09-19T04:53:01;10.60;99.90
53045;DHT22;38930;52.766;6.884;2022-09-19T04:55:27;10.70;99.90
53045;DHT22;38930;52.766;6.884;2022-09-19T04:57:54;10.80;99.90
53045;DHT22;38930;52.766;6.884;2022-09-19T05:00:20;10.60;99.90
53045;DHT22;38930;52.766;6.884;2022-09-19T05:03:13;10.60;99.90
53045;DHT22;38930;52.766;6.884;2022-09-19T05:05:41;10.60;99.90
53045;DHT22;38930;52.766;6.884;2022-09-19T05:08:11;10.30;99.90
53045;DHT22;38930;52.766;6.884;2022-09-19T05:10:37;10.60;99.90
53045;DHT22;38930;52.766;6.884;2022-09-19T05:13:03;10.60;99.90
53045;DHT22;38930;52.766;6.884;2022-09-19T05:15:29;10.60;99.90
53045;DHT22;38930;52.766;6.884;2022-09-19T05:17:55;10.60;99.90
53045;DHT22;38930;52.766;6.884;2022-09-19T05:20:22;10.60;99.90
53045;DHT22;38930;52.766;6.884;2022-09-19T05:22:54;10.70;99.90
53045;DHT22;38930;52.766;6.884;2022-09-19T05:25:34;10.70;99.90
53045;DHT22;38930;52.766;6.884;2022-09-19T05:28:00;10.70;99.90
53045;DHT22;38930;52.766;6.884;2022-09-19T05:30:32;10.70;99.90
53045;DHT22;38930;52.766;6.884;2022-09-19T05:32:58;10.80;99.90
53045;DHT22;38930;52.766;6.884;2022-09-19T05:35:25;10.80;99.90
53045;DHT22;38930;52.766;6.884;2022-09-19T05:37:51;10.90;99.90
53045;DHT22;38930;52.766;6.884;2022-09-19T05:40:17;10.90;99.90
53045;DHT22;38930;52.766;6.884;2022-09-19T05:42:44;10.90;99.90
53045;DHT22;38930;52.766;6.884;2022-09-19T05:45:13;10.90;99.90
53045;DHT22;38930;52.766;6.884;2022-09-19T05:47:40;11.00;99.90
53045;DHT22;38930;52.766;6.884;2022-09-19T05:50:07;11.00;99.90
53045;DHT22;38930;52.766;6.884;2022-09-19T05:52:37;11.00;99.90
53045;DHT22;38930;52.766;6.884;2022-09-19T05:55:22;11.20;99.90
53045;DHT22;38930;52.766;6.884;2022-09-19T05:57:57;11.00;99.90
53045;DHT22;38930;52.766;6.884;2022-09-19T06:00:25;11.10;99.90
53045;DHT22;38930;52.766;6.884;2022-09-19T06:02:56;11.10;99.90
53045;DHT22;38930;52.766;6.884;2022-09-19T06:05:24;11.10;99.90
53045;DHT22;38930;52.766;6.884;2022-09-19T06:07:50;11.10;99.90
53045;DHT22;38930;52.766;6.884;2022-09-19T06:10:17;11.10;99.90
53045;DHT22;38930;52.766;6.884;2022-09-19T06:12:43;11.10;99.90
53045;DHT22;38930;52.766;6.884;2022-09-19T06:15:09;11.10;99.90
53045;DHT22;38930;52.766;6.884;2022-09-19T06:17:35;11.10;99.90
53045;DHT22;38930;52.766;6.884;2022-09-19T06:20:01;11.10;99.90
53045;DHT22;38930;52.766;6.884;2022-09-19T06:22:26;11.10;99.90
53045;DHT22;38930;52.766;6.884;2022-09-19T06:24:52;11.10;99.90
53045;DHT22;38930;52.766;6.884;2022-09-19T06:27:17;11.10;99.90
53045;DHT22;38930;52.766;6.884;2022-09-19T06:29:43;11.10;99.90
53045;DHT22;38930;52.766;6.884;2022-09-19T06:32:09;11.10;99.90
53045;DHT22;38930;52.766;6.884;2022-09-19T06:34:34;11.10;99.90
53045;DHT22;38930;52.766;6.884;2022-09-19T06:37:00;11.30;99.90
53045;DHT22;38930;52.766;6.884;2022-09-19T06:39:26;11.20;99.90
53045;DHT22;38930;52.766;6.884;2022-09-19T06:41:51;11.40;99.90
53045;DHT22;38930;52.766;6.884;2022-09-19T06:44:17;11.20;99.90
53045;DHT22;38930;52.766;6.884;2022-09-19T06:46:43;11.30;99.90
53045;DHT22;38930;52.766;6.884;2022-09-19T06:49:09;11.30;99.90
53045;DHT22;38930;52.766;6.884;2022-09-19T06:51:35;11.40;99.90
53045;DHT22;38930;52.766;6.884;2022-09-19T06:54:01;11.50;99.90
53045;DHT22;38930;52.766;6.884;2022-09-19T06:56:27;11.70;99.90
53045;DHT22;38930;52.766;6.884;2022-09-19T06:58:52;11.80;99.90
53045;DHT22;38930;52.766;6.884;2022-09-19T07:01:21;11.80;99.90
53045;DHT22;38930;52.766;6.884;2022-09-19T07:03:48;11.90;99.90
53045;DHT22;38930;52.766;6.884;2022-09-19T07:06:13;11.90;99.90
53045;DHT22;38930;52.766;6.884;2022-09-19T07:08:39;11.90;99.90
53045;DHT22;38930;52.766;6.884;2022-09-19T07:11:05;11.80;99.90
53045;DHT22;38930;52.766;6.884;2022-09-19T07:13:30;11.80;99.90
53045;DHT22;38930;52.766;6.884;2022-09-19T07:15:59;11.80;99.90
53045;DHT22;38930;52.766;6.884;2022-09-19T07:18:29;11.80;99.90
53045;DHT22;38930;52.766;6.884;2022-09-19T07:20:58;11.90;99.90
53045;DHT22;38930;52.766;6.884;2022-09-19T07:23:23;12.00;99.90
53045;DHT22;38930;52.766;6.884;2022-09-19T07:25:49;12.20;99.90
53045;DHT22;38930;52.766;6.884;2022-09-19T07:28:17;12.20;99.90
53045;DHT22;38930;52.766;6.884;2022-09-19T07:30:44;12.40;99.90
53045;DHT22;38930;52.766;6.884;2022-09-19T07:33:12;12.50;99.90
53045;DHT22;38930;52.766;6.884;2022-09-19T07:35:39;12.60;99.90
53045;DHT22;38930;52.766;6.884;2022-09-19T07:38:08;12.70;99.90
53045;DHT22;38930;52.766;6.884;2022-09-19T07:40:34;12.70;99.90
53045;DHT22;38930;52.766;6.884;2022-09-19T07:43:01;12.80;99.90
53045;DHT22;38930;52.766;6.884;2022-09-19T07:45:29;12.70;99.90
53045;DHT22;38930;52.766;6.884;2022-09-19T07:47:56;12.80;99.90
53045;DHT22;38930;52.766;6.884;2022-09-19T07:50:22;12.80;99.90
53045;DHT22;38930;52.766;6.884;2022-09-19T07:52:57;12.70;99.90
53045;DHT22;38930;52.766;6.884;2022-09-19T07:55:23;12.70;99.90
53045;DHT22;38930;52.766;6.884;2022-09-19T07:57:54;12.70;99.90
53045;DHT22;38930;52.766;6.884;2022-09-19T08:00:21;12.70;99.90
53045;DHT22;38930;52.766;6.884;2022-09-19T08:03:02;12.80;99.90
53045;DHT22;38930;52.766;6.884;2022-09-19T08:05:31;12.80;99.90
53045;DHT22;38930;52.766;6.884;2022-09-19T08:07:59;12.90;99.90
53045;DHT22;38930;52.766;6.884;2022-09-19T08:10:25;13.00;99.90
53045;DHT22;38930;52.766;6.884;2022-09-19T08:12:50;13.10;99.90
53045;DHT22;38930;52.766;6.884;2022-09-19T08:15:17;13.40;99.90
53045;DHT22;38930;52.766;6.884;2022-09-19T08:18:01;13.30;99.90
53045;DHT22;38930;52.766;6.884;2022-09-19T08:20:32;13.40;99.90
53045;DHT22;38930;52.766;6.884;2022-09-19T08:23:00;13.50;99.90
53045;DHT22;38930;52.766;6.884;2022-09-19T08:25:27;13.50;99.90
53045;DHT22;38930;52.766;6.884;2022-09-19T08:27:53;13.60;99.90
53045;DHT22;38930;52.766;6.884;2022-09-19T08:30:21;13.70;99.90
53045;DHT22;38930;52.766;6.884;2022-09-19T08:32:48;13.90;99.90
53045;DHT22;38930;52.766;6.884;2022-09-19T08:35:19;14.10;99.90
53045;DHT22;38930;52.766;6.884;2022-09-19T08:37:45;14.20;99.90
53045;DHT22;38930;52.766;6.884;2022-09-19T08:40:28;14.20;99.90
53045;DHT22;38930;52.766;6.884;2022-09-19T08:43:17;14.20;99.90
53045;DHT22;38930;52.766;6.884;2022-09-19T08:54:18;14.00;99.90
53045;DHT22;38930;52.766;6.884;2022-09-19T08:56:44;14.00;99.90
53045;DHT22;38930;52.766;6.884;2022-09-19T08:59:14;14.10;99.90
53045;DHT22;38930;52.766;6.884;2022-09-19T09:01:40;14.20;99.90
53045;DHT22;38930;52.766;6.884;2022-09-19T09:04:28;14.20;99.90
53045;DHT22;38930;52.766;6.884;2022-09-19T09:12:08;14.50;99.90
53045;DHT22;38930;52.766;6.884;2022-09-19T09:14:58;14.60;99.90
53045;DHT22;38930;52.766;6.884;2022-09-19T09:25:50;15.10;99.90
53045;DHT22;38930;52.766;6.884;2022-09-19T09:28:40;15.10;99.90
53045;DHT22;38930;52.766;6.884;2022-09-19T09:31:28;15.20;99.90
53045;DHT22;38930;52.766;6.884;2022-09-19T09:34:02;15.20;99.90
53045;DHT22;38930;52.766;6.884;2022-09-19T09:36:43;15.20;99.90
53045;DHT22;38930;52.766;6.884;2022-09-19T09:39:20;15.40;99.90
53045;DHT22;38930;52.766;6.884;2022-09-19T09:42:13;15.40;99.90
53045;DHT22;38930;52.766;6.884;2022-09-19T09:47:38;15.80;99.90
53045;DHT22;38930;52.766;6.884;2022-09-19T09:58:57;16.20;99.90
53045;DHT22;38930;52.766;6.884;2022-09-19T10:04:41;16.30;99.90
53045;DHT22;38930;52.766;6.884;2022-09-19T10:09:45;16.40;99.90
53045;DHT22;38930;52.766;6.884;2022-09-19T10:12:27;16.40;99.90
53045;DHT22;38930;52.766;6.884;2022-09-19T10:15:00;16.50;99.90
53045;DHT22;38930;52.766;6.884;2022-09-19T10:17:29;16.50;99.90
53045;DHT22;38930;52.766;6.884;2022-09-19T10:20:00;16.30;99.90
53045;DHT22;38930;52.766;6.884;2022-09-19T10:22:28;16.30;99.90
53045;DHT22;38930;52.766;6.884;2022-09-19T10:24:56;16.30;99.90
53045;DHT22;38930;52.766;6.884;2022-09-19T10:29:57;16.20;99.90
53045;DHT22;38930;52.766;6.884;2022-09-19T10:32:28;16.00;99.90
53045;DHT22;38930;52.766;6.884;2022-09-19T10:35:00;16.20;99.90
53045;DHT22;38930;52.766;6.884;2022-09-19T10:37:25;16.40;99.90
53045;DHT22;38930;52.766;6.884;2022-09-19T10:40:02;16.50;99.90
53045;DHT22;38930;52.766;6.884;2022-09-19T10:42:34;16.60;99.90
53045;DHT22;38930;52.766;6.884;2022-09-19T10:45:22;16.80;99.90
53045;DHT22;38930;52.766;6.884;2022-09-19T10:47:52;17.00;99.90
53045;DHT22;38930;52.766;6.884;2022-09-19T10:50:20;17.30;99.90
53045;DHT22;38930;52.766;6.884;2022-09-19T10:52:47;17.60;99.90
53045;DHT22;38930;52.766;6.884;2022-09-19T10:55:16;17.60;99.90
53045;DHT22;38930;52.766;6.884;2022-09-19T10:57:57;17.40;99.90
53045;DHT22;38930;52.766;6.884;2022-09-19T11:00:26;17.20;99.90
53045;DHT22;38930;52.766;6.884;2022-09-19T11:03:16;17.00;99.90
53045;DHT22;38930;52.766;6.884;2022-09-19T11:05:42;16.50;99.90
53045;DHT22;38930;52.766;6.884;2022-09-19T11:08:24;16.10;99.90
53045;DHT22;38930;52.766;6.884;2022-09-19T11:10:51;15.80;99.90
53045;DHT22;38930;52.766;6.884;2022-09-19T11:13:18;15.50;99.90
53045;DHT22;38930;52.766;6.884;2022-09-19T11:16:01;15.50;99.90
53045;DHT22;38930;52.766;6.884;2022-09-19T11:21:45;15.20;99.90
53045;DHT22;38930;52.766;6.884;2022-09-19T11:25:03;15.40;99.90
53045;DHT22;38930;52.766;6.884;2022-09-19T11:29:56;15.80;99.90
53045;DHT22;38930;52.766;6.884;2022-09-19T11:46:02;16.50;99.90
53045;DHT22;38930;52.766;6.884;2022-09-19T11:48:58;16.60;99.90
53045;DHT22;38930;52.766;6.884;2022-09-19T11:57:53;16.90;99.90
53045;DHT22;38930;52.766;6.884;2022-09-19T12:00:22;17.00;99.90
53045;DHT22;38930;52.766;6.884;2022-09-19T13:38:58;16.10;99.90
53045;DHT22;38930;52.766;6.884;2022-09-19T13:41:41;16.30;99.90
53045;DHT22;38930;52.766;6.884;2022-09-19T13:44:35;16.00;99.90
53045;DHT22;38930;52.766;6.884;2022-09-19T13:47:22;15.90;99.90
53045;DHT22;38930;52.766;6.884;2022-09-19T13:50:05;15.60;99.90
53045;DHT22;38930;52.766;6.884;2022-09-19T13:52:40;15.40;99.90
53045;DHT22;38930;52.766;6.884;2022-09-19T13:57:44;15.10;99.90
53045;DHT22;38930;52.766;6.884;2022-09-19T14:00:32;15.00;99.90
53045;DHT22;38930;52.766;6.884;2022-09-19T14:03:26;14.90;99.90
53045;DHT22;38930;52.766;6.884;2022-09-19T14:06:28;14.70;99.90
53045;DHT22;38930;52.766;6.884;2022-09-19T14:09:16;14.60;99.90
53045;DHT22;38930;52.766;6.884;2022-09-19T14:11:43;14.80;99.90
53045;DHT22;38930;52.766;6.884;2022-09-19T14:19:49;14.70;99.90
53045;DHT22;38930;52.766;6.884;2022-09-19T14:39:12;15.10;99.90
53045;DHT22;38930;52.766;6.884;2022-09-19T14:42:21;15.20;99.90
53045;DHT22;38930;52.766;6.884;2022-09-19T14:45:25;15.30;99.90
53045;DHT22;38930;52.766;6.884;2022-09-19T14:48:04;15.50;99.90
53045;DHT22;38930;52.766;6.884;2022-09-19T14:50:39;15.60;99.90
53045;DHT22;38930;52.766;6.884;2022-09-19T14:53:13;15.80;99.90
53045;DHT22;38930;52.766;6.884;2022-09-19T14:55:46;15.80;99.90
53045;DHT22;38930;52.766;6.884;2022-09-19T14:58:39;15.70;99.90
53045;DHT22;38930;52.766;6.884;2022-09-19T15:01:11;15.40;99.90
53045;DHT22;38930;52.766;6.884;2022-09-19T15:06:34;15.10;99.90
53045;DHT22;38930;52.766;6.884;2022-09-19T15:09:01;14.90;99.90
53045;DHT22;38930;52.766;6.884;2022-09-19T15:11:27;15.00;99.90
53045;DHT22;38930;52.766;6.884;2022-09-19T15:13:54;14.60;99.90
53045;DHT22;38930;52.766;6.884;2022-09-19T15:16:21;14.50;99.90
53045;DHT22;38930;52.766;6.884;2022-09-19T15:18:49;14.20;99.90
53045;DHT22;38930;52.766;6.884;2022-09-19T15:21:24;14.30;99.90
53045;DHT22;38930;52.766;6.884;2022-09-19T15:23:53;14.20;99.90
53045;DHT22;38930;52.766;6.884;2022-09-19T15:26:23;14.10;99.90
53045;DHT22;38930;52.766;6.884;2022-09-19T15:29:00;14.20;99.90
53045;DHT22;38930;52.766;6.884;2022-09-19T15:31:29;14.00;99.90
53045;DHT22;38930;52.766;6.884;2022-09-19T15:34:03;14.10;99.90
53045;DHT22;38930;52.766;6.884;2022-09-19T15:36:31;13.90;99.90
53045;DHT22;38930;52.766;6.884;2022-09-19T15:38:59;13.90;99.90
53045;DHT22;38930;52.766;6.884;2022-09-19T15:41:29;13.90;99.90
53045;DHT22;38930;52.766;6.884;2022-09-19T15:43:56;14.00;99.90
53045;DHT22;38930;52.766;6.884;2022-09-19T15:48:58;14.10;99.90
53045;DHT22;38930;52.766;6.884;2022-09-19T15:51:35;14.10;99.90
53045;DHT22;38930;52.766;6.884;2022-09-19T15:54:16;14.10;99.90
53045;DHT22;38930;52.766;6.884;2022-09-19T15:56:44;14.00;99.90
53045;DHT22;38930;52.766;6.884;2022-09-19T15:59:16;14.00;99.90
53045;DHT22;38930;52.766;6.884;2022-09-19T16:01:59;13.90;99.90
53045;DHT22;38930;52.766;6.884;2022-09-19T16:04:41;13.90;99.90
53045;DHT22;38930;52.766;6.884;2022-09-19T16:07:25;13.90;99.90
53045;DHT22;38930;52.766;6.884;2022-09-19T16:12:44;14.00;99.90
53045;DHT22;38930;52.766;6.884;2022-09-19T16:22:59;14.00;99.90
53045;DHT22;38930;52.766;6.884;2022-09-19T16:25:39;14.00;99.90
53045;DHT22;38930;52.766;6.884;2022-09-19T16:28:19;14.00;99.90
53045;DHT22;38930;52.766;6.884;2022-09-19T16:30:57;14.00;99.90
53045;DHT22;38930;52.766;6.884;2022-09-19T16:33:39;14.00;99.90
53045;DHT22;38930;52.766;6.884;2022-09-19T16:36:10;14.10;99.90
53045;DHT22;38930;52.766;6.884;2022-09-19T16:38:39;14.10;99.90
53045;DHT22;38930;52.766;6.884;2022-09-19T16:41:06;14.00;99.90
53045;DHT22;38930;52.766;6.884;2022-09-19T16:45:58;14.00;99.90
53045;DHT22;38930;52.766;6.884;2022-09-19T16:48:26;13.90;99.90
53045;DHT22;38930;52.766;6.884;2022-09-19T16:50:51;13.90;99.90
53045;DHT22;38930;52.766;6.884;2022-09-19T16:53:17;13.90;99.90
53045;DHT22;38930;52.766;6.884;2022-09-19T16:55:43;13.80;99.90
53045;DHT22;38930;52.766;6.884;2022-09-19T16:58:12;13.80;99.90
53045;DHT22;38930;52.766;6.884;2022-09-19T17:00:39;13.70;99.90
53045;DHT22;38930;52.766;6.884;2022-09-19T17:03:05;13.70;99.90
53045;DHT22;38930;52.766;6.884;2022-09-19T17:05:33;14.00;99.90
53045;DHT22;38930;52.766;6.884;2022-09-19T17:08:00;13.60;99.90
53045;DHT22;38930;52.766;6.884;2022-09-19T17:10:26;13.50;99.90
53045;DHT22;38930;52.766;6.884;2022-09-19T17:12:54;13.50;99.90
53045;DHT22;38930;52.766;6.884;2022-09-19T17:18:06;13.40;99.90
53045;DHT22;38930;52.766;6.884;2022-09-19T17:20:32;13.30;99.90
53045;DHT22;38930;52.766;6.884;2022-09-19T17:22:58;13.30;99.90
53045;DHT22;38930;52.766;6.884;2022-09-19T17:25:43;13.20;99.90
53045;DHT22;38930;52.766;6.884;2022-09-19T17:28:14;13.10;99.90
53045;DHT22;38930;52.766;6.884;2022-09-19T17:30:43;13.10;99.90
53045;DHT22;38930;52.766;6.884;2022-09-19T17:33:14;13.00;99.90
53045;DHT22;38930;52.766;6.884;2022-09-19T17:35:41;12.90;99.90
53045;DHT22;38930;52.766;6.884;2022-09-19T17:38:07;12.90;99.90
53045;DHT22;38930;52.766;6.884;2022-09-19T17:40:35;12.90;99.90
53045;DHT22;38930;52.766;6.884;2022-09-19T17:43:03;12.80;99.90
53045;DHT22;38930;52.766;6.884;2022-09-19T17:45:31;12.80;99.90
53045;DHT22;38930;52.766;6.884;2022-09-19T17:47:59;12.80;99.90
53045;DHT22;38930;52.766;6.884;2022-09-19T17:50:26;12.70;99.90
53045;DHT22;38930;52.766;6.884;2022-09-19T17:52:53;12.70;99.90
53045;DHT22;38930;52.766;6.884;2022-09-19T17:55:18;12.70;99.90
53045;DHT22;38930;52.766;6.884;2022-09-19T17:57:46;12.90;99.90
53045;DHT22;38930;52.766;6.884;2022-09-19T18:00:12;12.70;99.90
53045;DHT22;38930;52.766;6.884;2022-09-19T18:02:39;12.70;99.90
53045;DHT22;38930;52.766;6.884;2022-09-19T18:05:24;12.70;99.90
53045;DHT22;38930;52.766;6.884;2022-09-19T18:07:49;12.60;99.90
53045;DHT22;38930;52.766;6.884;2022-09-19T18:10:24;12.60;99.90
53045;DHT22;38930;52.766;6.884;2022-09-19T18:12:52;12.60;99.90
53045;DHT22;38930;52.766;6.884;2022-09-19T18:15:20;12.80;99.90
53045;DHT22;38930;52.766;6.884;2022-09-19T18:17:46;12.60;99.90
53045;DHT22;38930;52.766;6.884;2022-09-19T18:20:13;12.60;99.90
53045;DHT22;38930;52.766;6.884;2022-09-19T18:22:40;12.60;99.90
53045;DHT22;38930;52.766;6.884;2022-09-19T18:25:06;12.60;99.90
53045;DHT22;38930;52.766;6.884;2022-09-19T18:27:34;12.50;99.90
53045;DHT22;38930;52.766;6.884;2022-09-19T18:30:00;12.50;99.90
53045;DHT22;38930;52.766;6.884;2022-09-19T18:32:26;12.80;99.90
53045;DHT22;38930;52.766;6.884;2022-09-19T18:34:53;12.70;99.90
53045;DHT22;38930;52.766;6.884;2022-09-19T18:37:18;12.40;99.90
53045;DHT22;38930;52.766;6.884;2022-09-19T18:39:44;12.30;99.90
53045;DHT22;38930;52.766;6.884;2022-09-19T18:42:10;12.30;99.90
53045;DHT22;38930;52.766;6.884;2022-09-19T18:44:35;12.20;99.90
53045;DHT22;38930;52.766;6.884;2022-09-19T18:47:01;12.10;99.90
53045;DHT22;38930;52.766;6.884;2022-09-19T18:49:26;12.40;99.90
53045;DHT22;38930;52.766;6.884;2022-09-19T18:51:52;11.90;99.90
53045;DHT22;38930;52.766;6.884;2022-09-19T18:54:18;11.80;99.90
53045;DHT22;38930;52.766;6.884;2022-09-19T18:56:45;11.70;99.90
53045;DHT22;38930;52.766;6.884;2022-09-19T18:59:10;11.70;99.90
53045;DHT22;38930;52.766;6.884;2022-09-19T19:01:36;11.60;99.90
53045;DHT22;38930;52.766;6.884;2022-09-19T19:04:04;11.50;99.90
53045;DHT22;38930;52.766;6.884;2022-09-19T19:06:31;11.40;99.90
53045;DHT22;38930;52.766;6.884;2022-09-19T19:08:57;11.30;99.90
53045;DHT22;38930;52.766;6.884;2022-09-19T19:11:26;11.30;99.90
53045;DHT22;38930;52.766;6.884;2022-09-19T19:13:52;11.20;99.90
53045;DHT22;38930;52.766;6.884;2022-09-19T19:16:20;11.20;99.90
53045;DHT22;38930;52.766;6.884;2022-09-19T19:18:49;11.10;99.90
53045;DHT22;38930;52.766;6.884;2022-09-19T19:21:18;11.00;99.90
53045;DHT22;38930;52.766;6.884;2022-09-19T19:23:46;10.90;99.90
53045;DHT22;38930;52.766;6.884;2022-09-19T19:26:12;10.90;99.90
53045;DHT22;38930;52.766;6.884;2022-09-19T19:28:37;11.20;99.90
53045;DHT22;38930;52.766;6.884;2022-09-19T19:31:04;10.70;99.90
53045;DHT22;38930;52.766;6.884;2022-09-19T19:33:30;10.70;99.90
53045;DHT22;38930;52.766;6.884;2022-09-19T19:36:04;10.60;99.90
53045;DHT22;38930;52.766;6.884;2022-09-19T19:38:36;10.60;99.90
53045;DHT22;38930;52.766;6.884;2022-09-19T19:41:05;10.50;99.90
53045;DHT22;38930;52.766;6.884;2022-09-19T19:43:32;10.40;99.90
53045;DHT22;38930;52.766;6.884;2022-09-19T19:45:58;10.40;99.90
53045;DHT22;38930;52.766;6.884;2022-09-19T19:48:37;10.40;99.90
53045;DHT22;38930;52.766;6.884;2022-09-19T19:51:13;10.30;99.90
53045;DHT22;38930;52.766;6.884;2022-09-19T19:53:40;10.30;99.90
53045;DHT22;38930;52.766;6.884;2022-09-19T19:56:09;10.30;99.90
53045;DHT22;38930;52.766;6.884;2022-09-19T19:58:34;10.20;99.90
53045;DHT22;38930;52.766;6.884;2022-09-19T20:01:11;10.10;99.90
53045;DHT22;38930;52.766;6.884;2022-09-19T20:06:19;10.00;99.90
53045;DHT22;38930;52.766;6.884;2022-09-19T20:08:45;10.00;99.90
53045;DHT22;38930;52.766;6.884;2022-09-19T20:11:11;10.00;99.90